»·PEaware :: DAL2980 KBOI-KSLC

DAL2980 :: KBOI-KSLC

FLIGHT INFORMATION

Flight Status: Arrived
Operator:
Delta Air Lines
More flights by this operator :: More flights under this callsign
Pilot: Anonymous 18910 (18910)
Aircraft: AIRBUS A320
(A320)
More flights by this aircraft type
Origin: KBOI Boise Air Terminal/Gowen
United States
Destination: KSLC Salt Lake City Intl
United States
More flights between these airports :: More routes between these airports
Route: +BOI3 ROARR BYI SKEES5
File this flight plan on PilotEdge
Remarks:
Altitude:
(Current/Filed)
27,000ft
Speed:
(Current/Filed)
300kts
Departed: 11-Aug-18 10:27 AM
Arrived: 11-Aug-18 11:10 AM
Distance/Time
Traveled:
252nm/0:43
Distance/Time
To Go:
Arrived

Flight Plot

Page will automatically refresh every two minutes.

Flight plan parsing failed; only flown route is shown


Map Options




Map Legend


Flown Route
Filed Route
Departure Airport
Arrival Airport
Navaid (VOR, NDB)
Fix

Horizontal Profiles

Position Reports

Time Latitude Longitude Heading Altitude Ground
Speed
11-Aug-18 10:09 43.567281 -116.218550 256 2852ft 0kts
11-Aug-18 10:10 43.567281 -116.218550 256 2852ft 0kts
11-Aug-18 10:11 43.567281 -116.218550 256 2852ft 0kts
11-Aug-18 10:12 43.567281 -116.218550 256 2852ft 0kts
11-Aug-18 10:13 43.567281 -116.218550 256 2852ft 0kts
11-Aug-18 10:14 43.567281 -116.218550 256 2852ft 0kts
11-Aug-18 10:15 43.567281 -116.218550 256 2852ft 0kts
11-Aug-18 10:16 43.567281 -116.218550 256 2852ft 0kts
11-Aug-18 10:17 43.567281 -116.218550 256 2852ft 0kts
11-Aug-18 10:18 43.567294 -116.218477 256 2852ft 2kts
11-Aug-18 10:19 43.567399 -116.217894 256 2852ft 1kts
11-Aug-18 10:20 43.567658 -116.217572 175 2852ft 1kts
11-Aug-18 10:21 43.567721 -116.217585 173 2852ft 0kts
11-Aug-18 10:22 43.567717 -116.217585 173 2852ft 0kts
11-Aug-18 10:23 43.566184 -116.217412 182 2852ft 12kts
11-Aug-18 10:24 43.566188 -116.221545 292 2852ft 12kts
11-Aug-18 10:25 43.568925 -116.229505 295 2852ft 31kts
11-Aug-18 10:26 43.570934 -116.236161 220 2852ft 0kts
11-Aug-18 10:27 43.569961 -116.236133 115 2852ft 2kts
11-Aug-18 10:28 43.562625 -116.214713 115 2900ft 172kts
11-Aug-18 10:29 43.538331 -116.146791 116 5480ft 229kts
11-Aug-18 10:30 43.505987 -116.053368 116 7776ft 298kts
11-Aug-18 10:31 43.473577 -115.947923 116 11373ft 300kts
11-Aug-18 10:32 43.441183 -115.841715 117 14615ft 310kts
11-Aug-18 10:33 43.402972 -115.721487 116 15770ft 377kts
11-Aug-18 10:34 43.365967 -115.603841 115 16910ft 408kts
11-Aug-18 10:35 43.320716 -115.460202 116 18946ft 414kts
11-Aug-18 10:36 43.268432 -115.318630 125 20469ft 424kts
11-Aug-18 10:37 43.204275 -115.180171 125 21770ft 440kts
11-Aug-18 10:38 43.137628 -115.036955 125 23096ft 450kts
11-Aug-18 10:39 43.069816 -114.891963 125 24379ft 458kts
11-Aug-18 10:40 43.000523 -114.744556 125 25572ft 465kts
11-Aug-18 10:41 42.930240 -114.595785 125 26698ft 471kts
11-Aug-18 10:42 42.859699 -114.447190 125 27143ft 468kts
11-Aug-18 10:43 42.788796 -114.298633 126 27146ft 469kts
11-Aug-18 10:44 42.717828 -114.150652 125 27147ft 467kts
11-Aug-18 10:45 42.646952 -114.003604 125 27112ft 466kts
11-Aug-18 10:46 42.574010 -113.858782 133 27115ft 464kts
11-Aug-18 10:47 42.483108 -113.735556 137 27136ft 463kts
11-Aug-18 10:48 42.391924 -113.613687 137 27137ft 462kts
11-Aug-18 10:49 42.300417 -113.491949 137 27136ft 462kts
11-Aug-18 10:50 42.208920 -113.370749 136 26951ft 454kts
11-Aug-18 10:51 42.121034 -113.254783 137 26020ft 440kts
11-Aug-18 10:52 42.034065 -113.140584 137 25040ft 435kts
11-Aug-18 10:53 41.948042 -113.028044 137 24161ft 430kts
11-Aug-18 10:54 41.866616 -112.921944 137 24159ft 430kts
11-Aug-18 10:55 41.782730 -112.813017 137 23431ft 427kts
11-Aug-18 10:56 41.697741 -112.703096 136 22446ft 425kts
11-Aug-18 10:57 41.613064 -112.594011 136 21270ft 423kts
11-Aug-18 10:58 41.530446 -112.489305 140 18309ft 404kts
11-Aug-18 10:59 41.447510 -112.394004 131 15224ft 388kts
11-Aug-18 11:00 41.376313 -112.288748 132 14498ft 382kts
11-Aug-18 11:01 41.306614 -112.186092 133 13157ft 373kts
11-Aug-18 11:02 41.238271 -112.086484 132 12279ft 343kts
11-Aug-18 11:03 41.171186 -112.019762 175 11054ft 299kts
11-Aug-18 11:04 41.096421 -112.010709 174 10399ft 247kts
11-Aug-18 11:05 41.029116 -112.002631 176 8654ft 241kts
11-Aug-18 11:06 40.966975 -111.995424 175 7338ft 198kts
11-Aug-18 11:07 40.920674 -111.990077 176 6446ft 148kts
11-Aug-18 11:08 40.881768 -111.985525 176 5711ft 141kts
11-Aug-18 11:09 40.842544 -111.980932 176 4955ft 141kts
11-Aug-18 11:10 40.803664 -111.976502 175 4242ft 134kts
11-Aug-18 11:11 40.790316 -111.976415 205 4236ft 7kts
11-Aug-18 11:12 40.789323 -111.979876 186 4236ft 10kts
11-Aug-18 11:13 40.788099 -111.980943 281 4236ft 0kts

Navigation Log

Ident Type
Flight plan parsing failed, navigation log unavailable